createdAt,value
2018-05-03T00:00:16.706Z,12.42
2018-05-03T00:01:16.758Z,12.36
2018-05-03T00:02:17.040Z,12.36
2018-05-03T00:03:16.301Z,12.36
2018-05-03T00:04:16.565Z,12.36
2018-05-03T00:05:16.841Z,12.30
2018-05-03T00:06:17.107Z,12.23
2018-05-03T00:07:16.374Z,12.30
2018-05-03T00:08:16.633Z,12.30
2018-05-03T00:09:16.898Z,12.30
2018-05-03T00:10:17.234Z,12.23
2018-05-03T00:11:16.294Z,12.30
2018-05-03T00:12:16.562Z,12.30
2018-05-03T00:13:16.825Z,12.30
2018-05-03T00:14:17.135Z,12.23
2018-05-03T00:15:16.424Z,12.17
2018-05-03T00:16:16.684Z,12.23
2018-05-03T00:17:16.946Z,12.23
2018-05-03T00:18:17.281Z,12.23
2018-05-03T00:19:16.621Z,12.17
2018-05-03T00:20:16.896Z,12.11
2018-05-03T00:21:16.935Z,12.11
2018-05-03T00:22:17.198Z,12.11
2018-05-03T00:23:16.465Z,12.11
2018-05-03T00:24:16.731Z,12.05
2018-05-03T00:25:16.991Z,12.11
2018-05-03T00:26:17.253Z,12.17
2018-05-03T00:27:16.515Z,12.17
2018-05-03T00:28:17.367Z,12.17
2018-05-03T00:29:16.627Z,12.17
2018-05-03T00:30:16.896Z,12.17
2018-05-03T00:31:16.955Z,12.11
2018-05-03T00:32:17.228Z,12.11
2018-05-03T00:33:16.503Z,12.05
2018-05-03T00:34:16.766Z,12.11
2018-05-03T00:35:17.027Z,12.05
2018-05-03T00:36:16.288Z,12.11
2018-05-03T00:37:16.555Z,12.11
2018-05-03T00:38:16.816Z,12.11
2018-05-03T00:39:17.075Z,12.05
2018-05-03T00:40:16.350Z,12.11
2018-05-03T00:41:16.383Z,12.11
2018-05-03T00:42:16.644Z,12.11
2018-05-03T00:43:16.908Z,12.11
2018-05-03T00:44:17.163Z,12.11
2018-05-03T00:45:16.429Z,12.11
2018-05-03T00:46:16.696Z,12.11
2018-05-03T00:47:16.959Z,12.17
2018-05-03T00:48:17.234Z,12.17
2018-05-03T00:49:16.505Z,12.23
2018-05-03T00:50:16.780Z,12.17
2018-05-03T00:51:17.084Z,12.17
2018-05-03T00:52:16.346Z,12.17
2018-05-03T00:53:16.606Z,12.17
2018-05-03T00:54:16.861Z,12.17
2018-05-03T00:55:17.116Z,12.17
2018-05-03T00:56:16.389Z,12.17
2018-05-03T00:57:16.656Z,12.17
2018-05-03T00:58:16.919Z,12.17
2018-05-03T00:59:17.187Z,12.17
2018-05-03T01:00:16.454Z,12.17
2018-05-03T01:01:16.493Z,12.17
2018-05-03T01:02:16.747Z,12.17
2018-05-03T01:03:17.019Z,12.11
2018-05-03T01:04:16.281Z,12.11
2018-05-03T01:05:16.544Z,12.05
2018-05-03T01:06:16.814Z,11.98
2018-05-03T01:07:17.083Z,11.92
2018-05-03T01:08:16.340Z,11.92
2018-05-03T01:09:16.599Z,11.92
2018-05-03T01:10:16.863Z,11.92
2018-05-03T01:11:16.915Z,11.86
2018-05-03T01:12:17.175Z,11.86
2018-05-03T01:13:16.431Z,11.86
2018-05-03T01:14:16.694Z,11.80
2018-05-03T01:15:16.958Z,11.80
2018-05-03T01:16:17.225Z,11.80
2018-05-03T01:17:16.511Z,11.73
2018-05-03T01:18:16.765Z,11.73
2018-05-03T01:19:17.032Z,11.73
2018-05-03T01:20:16.308Z,11.73
2018-05-03T01:21:16.348Z,11.73
2018-05-03T01:22:16.616Z,11.73
2018-05-03T01:23:16.872Z,11.67
2018-05-03T01:24:17.133Z,11.61
2018-05-03T01:25:16.391Z,11.67
2018-05-03T01:26:16.660Z,11.67
2018-05-03T01:27:16.918Z,11.67
2018-05-03T01:28:17.447Z,11.67
2018-05-03T01:29:16.728Z,11.67
2018-05-03T01:30:17.004Z,11.67
2018-05-03T01:31:17.043Z,11.73
2018-05-03T01:32:16.307Z,11.67
2018-05-03T01:33:16.578Z,11.67
2018-05-03T01:34:16.838Z,11.61
2018-05-03T01:35:17.096Z,11.55
2018-05-03T01:36:16.358Z,11.61
2018-05-03T01:37:16.618Z,11.61
2018-05-03T01:38:16.885Z,11.61
2018-05-03T01:39:17.147Z,11.61
2018-05-03T01:40:16.423Z,11.55
2018-05-03T01:41:16.476Z,11.48
2018-05-03T01:42:16.736Z,11.42
2018-05-03T01:43:17.009Z,11.36
2018-05-03T01:44:16.275Z,11.36
2018-05-03T01:45:16.534Z,11.30
2018-05-03T01:46:16.792Z,11.23
2018-05-03T01:47:17.053Z,11.23
2018-05-03T01:48:16.316Z,11.17
2018-05-03T01:49:16.571Z,11.23
2018-05-03T01:50:16.846Z,11.23
2018-05-03T01:51:16.895Z,11.30
2018-05-03T01:52:17.158Z,11.23
2018-05-03T01:53:16.417Z,11.23
2018-05-03T01:54:16.689Z,11.23
2018-05-03T01:55:16.958Z,11.17
2018-05-03T01:56:17.234Z,11.23
2018-05-03T01:57:16.486Z,11.17
2018-05-03T01:58:16.746Z,11.17
2018-05-03T01:59:17.003Z,11.23
2018-05-03T02:00:17.271Z,11.11
2018-05-03T02:01:16.313Z,11.11
2018-05-03T02:02:16.572Z,11.05
2018-05-03T02:03:16.831Z,10.98
2018-05-03T02:04:17.096Z,10.98
2018-05-03T02:05:16.357Z,10.98
2018-05-03T02:06:16.620Z,10.92
2018-05-03T02:07:16.883Z,10.86
2018-05-03T02:08:17.146Z,10.86
2018-05-03T02:09:16.418Z,10.86
2018-05-03T02:10:16.714Z,10.92
2018-05-03T02:11:16.734Z,10.92
2018-05-03T02:12:16.992Z,10.92
2018-05-03T02:13:17.259Z,10.86
2018-05-03T02:14:16.524Z,10.86
2018-05-03T02:15:16.779Z,10.80
2018-05-03T02:16:17.042Z,10.67
2018-05-03T02:17:16.311Z,10.67
2018-05-03T02:18:16.583Z,10.61
2018-05-03T02:19:16.940Z,10.55
2018-05-03T02:20:17.199Z,10.48
2018-05-03T02:21:17.241Z,10.42
2018-05-03T02:22:16.510Z,10.36
2018-05-03T02:23:16.776Z,10.36
2018-05-03T02:24:17.044Z,10.42
2018-05-03T02:25:16.310Z,10.48
2018-05-03T02:26:16.572Z,10.55
2018-05-03T02:27:16.837Z,10.55
2018-05-03T02:28:17.098Z,10.55
2018-05-03T02:29:16.360Z,10.55
2018-05-03T02:30:16.628Z,10.55
2018-05-03T02:31:16.675Z,10.61
2018-05-03T02:32:16.949Z,10.67
2018-05-03T02:33:17.222Z,10.73
2018-05-03T02:34:16.493Z,10.80
2018-05-03T02:35:16.769Z,10.86
2018-05-03T02:36:17.025Z,10.86
2018-05-03T02:37:16.283Z,10.98
2018-05-03T02:38:16.554Z,10.98
2018-05-03T02:39:16.837Z,10.98
2018-05-03T02:40:17.106Z,11.05
2018-05-03T02:41:17.150Z,11.05
2018-05-03T02:42:16.405Z,11.11
2018-05-03T02:43:16.665Z,11.17
2018-05-03T02:44:16.933Z,11.17
2018-05-03T02:45:17.191Z,11.17
2018-05-03T02:46:16.454Z,11.17
2018-05-03T02:47:16.717Z,11.17
2018-05-03T02:48:17.063Z,11.17
2018-05-03T02:49:16.549Z,11.23
2018-05-03T02:50:16.817Z,11.17
2018-05-03T02:51:16.851Z,11.17
2018-05-03T02:52:17.122Z,11.23
2018-05-03T02:53:16.389Z,11.23
2018-05-03T02:54:16.653Z,11.17
2018-05-03T02:55:16.929Z,11.11
2018-05-03T02:56:17.199Z,11.17
2018-05-03T02:57:16.474Z,11.11
2018-05-03T02:58:16.737Z,11.11
2018-05-03T02:59:17.103Z,11.11
2018-05-03T03:00:16.673Z,11.17
2018-05-03T03:01:16.709Z,11.23
2018-05-03T03:02:17.070Z,11.23
2018-05-03T03:03:16.451Z,11.30
2018-05-03T03:04:16.721Z,11.30
2018-05-03T03:05:16.984Z,11.23
2018-05-03T03:06:17.263Z,11.23
2018-05-03T03:07:16.552Z,11.30
2018-05-03T03:08:16.823Z,11.23
2018-05-03T03:09:17.092Z,11.30
2018-05-03T03:10:16.360Z,11.30
2018-05-03T03:11:16.410Z,11.30
2018-05-03T03:12:16.684Z,11.30
2018-05-03T03:13:16.946Z,11.30
2018-05-03T03:14:17.211Z,11.23
2018-05-03T03:15:16.475Z,11.23
2018-05-03T03:16:16.739Z,11.30
2018-05-03T03:17:17.000Z,11.23
2018-05-03T03:18:17.578Z,11.23
2018-05-03T03:19:16.851Z,11.23
2018-05-03T03:20:17.118Z,11.17
2018-05-03T03:21:17.153Z,11.17
2018-05-03T03:22:16.409Z,11.11
2018-05-03T03:23:16.672Z,11.11
2018-05-03T03:24:16.936Z,11.11
2018-05-03T03:25:17.203Z,11.05
2018-05-03T03:26:16.463Z,10.98
2018-05-03T03:27:16.720Z,10.98
2018-05-03T03:28:16.993Z,10.92
2018-05-03T03:29:17.255Z,10.92
2018-05-03T03:30:16.544Z,10.80
2018-05-03T03:31:16.570Z,10.80
2018-05-03T03:32:16.837Z,10.80
2018-05-03T03:33:17.101Z,10.80
2018-05-03T03:34:16.355Z,10.73
2018-05-03T03:35:16.621Z,10.73
2018-05-03T03:36:16.886Z,10.80
2018-05-03T03:37:17.147Z,10.73
2018-05-03T03:38:16.408Z,10.73
2018-05-03T03:39:16.672Z,10.67
2018-05-03T03:40:16.943Z,10.67
2018-05-03T03:41:16.982Z,10.67
2018-05-03T03:42:17.248Z,10.67
2018-05-03T03:43:16.512Z,10.67
2018-05-03T03:44:16.765Z,10.61
2018-05-03T03:45:17.030Z,10.61
2018-05-03T03:46:16.284Z,10.55
2018-05-03T03:47:16.547Z,10.61
2018-05-03T03:48:16.808Z,10.55
2018-05-03T03:49:17.078Z,10.55
2018-05-03T03:50:16.347Z,10.55
2018-05-03T03:51:16.394Z,10.48
2018-05-03T03:52:16.649Z,10.42
2018-05-03T03:53:16.940Z,10.42
2018-05-03T03:54:16.286Z,10.36
2018-05-03T03:55:16.544Z,10.30
2018-05-03T03:56:16.814Z,10.30
2018-05-03T03:57:17.084Z,10.23
2018-05-03T03:58:16.544Z,10.17
2018-05-03T03:59:16.808Z,10.11
2018-05-03T04:00:17.082Z,10.17
2018-05-03T04:01:17.129Z,10.11
2018-05-03T04:02:16.403Z,10.11
2018-05-03T04:03:16.667Z,10.17
2018-05-03T04:04:16.922Z,10.11
2018-05-03T04:05:17.182Z,10.11
2018-05-03T04:06:16.446Z,10.17
2018-05-03T04:07:16.731Z,10.17
2018-05-03T04:08:16.984Z,10.11
2018-05-03T04:09:17.255Z,10.05
2018-05-03T04:10:16.528Z,9.98
2018-05-03T04:11:16.566Z,9.92
2018-05-03T04:12:16.823Z,9.92
2018-05-03T04:13:17.092Z,9.86
2018-05-03T04:14:16.378Z,9.86
2018-05-03T04:15:16.647Z,9.73
2018-05-03T04:16:16.923Z,9.73
2018-05-03T04:17:17.188Z,9.80
2018-05-03T04:18:16.441Z,9.80
2018-05-03T04:19:16.707Z,9.73
2018-05-03T04:20:16.975Z,9.73
2018-05-03T04:21:17.015Z,9.73
2018-05-03T04:22:16.388Z,9.61
2018-05-03T04:23:16.918Z,9.61
2018-05-03T04:24:17.187Z,9.61
2018-05-03T04:25:16.462Z,9.55
2018-05-03T04:26:16.741Z,9.55
2018-05-03T04:27:17.013Z,9.55
2018-05-03T04:28:16.273Z,9.55
2018-05-03T04:29:16.541Z,9.55
2018-05-03T04:30:16.822Z,9.55
2018-05-03T04:31:16.873Z,9.48
2018-05-03T04:32:17.134Z,9.48
2018-05-03T04:33:16.407Z,9.42
2018-05-03T04:34:16.668Z,9.42
2018-05-03T04:35:16.930Z,9.42
2018-05-03T04:36:17.188Z,9.42
2018-05-03T04:37:16.453Z,9.42
2018-05-03T04:38:16.715Z,9.36
2018-05-03T04:39:16.979Z,9.36
2018-05-03T04:40:17.251Z,9.42
2018-05-03T04:41:16.318Z,9.48
2018-05-03T04:42:16.584Z,9.48
2018-05-03T04:43:16.841Z,9.55
2018-05-03T04:44:17.113Z,9.55
2018-05-03T04:45:16.367Z,9.61
2018-05-03T04:46:16.638Z,9.61
2018-05-03T04:47:16.914Z,9.67
2018-05-03T04:48:17.456Z,9.61
2018-05-03T04:49:16.799Z,9.61
2018-05-03T04:50:17.066Z,9.67
2018-05-03T04:51:17.100Z,9.73
2018-05-03T04:52:16.375Z,9.73
2018-05-03T04:53:16.634Z,9.80
2018-05-03T04:54:17.001Z,9.80
2018-05-03T04:55:16.583Z,9.86
2018-05-03T04:56:16.859Z,9.86
2018-05-03T04:57:17.119Z,9.80
2018-05-03T04:58:16.378Z,9.86
2018-05-03T04:59:16.634Z,9.86
2018-05-03T05:00:16.912Z,9.92
2018-05-03T05:01:16.962Z,9.92
2018-05-03T05:02:17.233Z,9.92
2018-05-03T05:03:16.502Z,9.98
2018-05-03T05:04:16.762Z,9.98
2018-05-03T05:05:17.030Z,10.05
2018-05-03T05:06:16.281Z,10.05
2018-05-03T05:07:16.551Z,10.05
2018-05-03T05:08:16.811Z,10.11
2018-05-03T05:09:17.069Z,10.17
2018-05-03T05:10:16.347Z,10.23
2018-05-03T05:11:16.380Z,10.30
2018-05-03T05:12:16.648Z,10.36
2018-05-03T05:13:16.905Z,10.42
2018-05-03T05:14:17.184Z,10.48
2018-05-03T05:15:16.455Z,10.55
2018-05-03T05:16:16.745Z,10.55
2018-05-03T05:17:17.008Z,10.61
2018-05-03T05:18:16.273Z,10.67
2018-05-03T05:19:16.547Z,10.73
2018-05-03T05:20:16.824Z,10.73
2018-05-03T05:21:16.845Z,10.86
2018-05-03T05:22:17.111Z,10.80
2018-05-03T05:23:16.433Z,10.86
2018-05-03T05:24:16.717Z,10.86
2018-05-03T05:25:17.119Z,10.86
2018-05-03T05:26:16.643Z,11.05
2018-05-03T05:27:16.904Z,10.98
2018-05-03T05:28:17.160Z,11.05
2018-05-03T05:29:16.419Z,11.05
2018-05-03T05:30:16.694Z,11.05
2018-05-03T05:31:16.748Z,11.17
2018-05-03T05:32:17.020Z,11.17
2018-05-03T05:33:16.272Z,11.17
2018-05-03T05:34:16.534Z,11.23
2018-05-03T05:35:16.809Z,11.30
2018-05-03T05:36:17.087Z,11.36
2018-05-03T05:37:16.350Z,11.42
2018-05-03T05:38:16.607Z,11.48
2018-05-03T05:39:16.869Z,11.55
2018-05-03T05:40:17.131Z,11.61
2018-05-03T05:41:17.360Z,11.61
2018-05-03T05:42:16.632Z,11.61
2018-05-03T05:43:16.899Z,11.61
2018-05-03T05:44:17.163Z,11.61
2018-05-03T05:45:16.508Z,11.67
2018-05-03T05:46:16.766Z,11.67
2018-05-03T05:47:17.036Z,11.61
2018-05-03T05:48:16.299Z,11.73
2018-05-03T05:49:16.562Z,11.61
2018-05-03T05:50:16.836Z,11.61
2018-05-03T05:51:16.974Z,11.80
2018-05-03T05:52:16.378Z,11.98
2018-05-03T05:53:16.644Z,11.67
2018-05-03T05:54:16.911Z,11.67
2018-05-03T05:55:17.189Z,11.73
2018-05-03T05:56:16.459Z,11.80
2018-05-03T05:57:16.721Z,11.98
2018-05-03T05:58:16.985Z,12.05
2018-05-03T05:59:17.247Z,12.17
2018-05-03T06:00:16.525Z,12.23
2018-05-03T06:01:16.556Z,12.11
2018-05-03T06:02:16.815Z,11.98
2018-05-03T06:03:17.078Z,12.05
2018-05-03T06:04:16.385Z,12.17
2018-05-03T06:05:16.703Z,12.11
2018-05-03T06:06:16.958Z,12.17
2018-05-03T06:07:17.223Z,12.23
2018-05-03T06:08:16.483Z,12.05
2018-05-03T06:09:16.747Z,12.11
2018-05-03T06:10:17.049Z,12.17
2018-05-03T06:11:17.062Z,12.17
2018-05-03T06:12:16.353Z,12.17
2018-05-03T06:13:16.768Z,12.36
2018-05-03T06:14:17.028Z,12.23
2018-05-03T06:15:16.288Z,12.23
2018-05-03T06:16:16.559Z,12.42
2018-05-03T06:17:17.201Z,12.42
2018-05-03T06:18:16.457Z,12.36
2018-05-03T06:19:16.728Z,12.11
2018-05-03T06:20:17.009Z,12.30
2018-05-03T06:21:17.031Z,12.36
2018-05-03T06:22:16.301Z,12.48
2018-05-03T06:23:16.562Z,12.30
2018-05-03T06:24:16.817Z,12.36
2018-05-03T06:25:17.078Z,12.36
2018-05-03T06:26:16.335Z,12.42
2018-05-03T06:27:16.607Z,12.55
2018-05-03T06:28:16.873Z,12.48
2018-05-03T06:29:17.146Z,12.67
2018-05-03T06:30:16.411Z,12.42
2018-05-03T06:31:16.593Z,12.42
2018-05-03T06:32:16.850Z,12.55
2018-05-03T06:33:17.109Z,12.67
2018-05-03T06:34:16.378Z,12.92
2018-05-03T06:35:16.645Z,12.92
2018-05-03T06:36:16.906Z,12.61
2018-05-03T06:37:17.177Z,12.42
2018-05-03T06:38:16.447Z,12.42
2018-05-03T06:39:16.709Z,12.42
2018-05-03T06:40:16.984Z,12.55
2018-05-03T06:41:17.004Z,12.55
2018-05-03T06:42:17.269Z,12.61
2018-05-03T06:43:16.525Z,12.55
2018-05-03T06:44:16.802Z,12.55
2018-05-03T06:45:17.289Z,12.42
2018-05-03T06:46:16.646Z,12.42
2018-05-03T06:47:16.905Z,12.42
2018-05-03T06:48:17.556Z,12.55
2018-05-03T06:49:16.829Z,12.48
2018-05-03T06:50:17.108Z,12.61
2018-05-03T06:51:17.152Z,12.86
2018-05-03T06:52:16.408Z,12.86
2018-05-03T06:53:16.665Z,12.86
2018-05-03T06:54:16.927Z,12.92
2018-05-03T06:55:17.186Z,13.11
2018-05-03T06:56:16.441Z,12.86
2018-05-03T06:57:16.708Z,12.86
2018-05-03T06:58:17.059Z,12.92
2018-05-03T06:59:16.314Z,12.80
2018-05-03T07:00:16.585Z,12.80
2018-05-03T07:01:16.628Z,12.86
2018-05-03T07:02:16.891Z,12.98
2018-05-03T07:03:17.159Z,13.17
2018-05-03T07:04:16.534Z,13.23
2018-05-03T07:05:16.897Z,13.36
2018-05-03T07:06:17.158Z,13.11
2018-05-03T07:07:16.421Z,13.05
2018-05-03T07:08:16.691Z,13.17
2018-05-03T07:09:16.957Z,13.36
2018-05-03T07:10:17.233Z,13.36
2018-05-03T07:11:17.260Z,13.36
2018-05-03T07:12:16.520Z,13.48
2018-05-03T07:13:16.781Z,13.55
2018-05-03T07:14:17.044Z,13.42
2018-05-03T07:15:16.318Z,13.42
2018-05-03T07:16:16.715Z,13.48
2018-05-03T07:17:17.125Z,13.55
2018-05-03T07:18:16.390Z,13.67
2018-05-03T07:19:16.654Z,13.36
2018-05-03T07:20:16.929Z,13.42
2018-05-03T07:21:16.972Z,13.55
2018-05-03T07:22:17.231Z,13.55
2018-05-03T07:23:16.502Z,13.42
2018-05-03T07:24:16.763Z,13.23
2018-05-03T07:25:17.031Z,13.36
2018-05-03T07:26:16.295Z,13.61
2018-05-03T07:27:16.565Z,13.61
2018-05-03T07:28:16.829Z,13.48
2018-05-03T07:29:17.095Z,13.42
2018-05-03T07:30:16.431Z,13.48
2018-05-03T07:31:16.466Z,13.48
2018-05-03T07:32:16.728Z,13.55
2018-05-03T07:33:16.998Z,13.61
2018-05-03T07:34:17.269Z,13.86
2018-05-03T07:35:16.532Z,14.17
2018-05-03T07:36:16.804Z,14.30
2018-05-03T07:37:17.057Z,14.23
2018-05-03T07:38:16.322Z,14.36
2018-05-03T07:39:16.577Z,14.11
2018-05-03T07:40:16.859Z,14.23
2018-05-03T07:41:16.904Z,14.36
2018-05-03T07:42:17.170Z,14.48
2018-05-03T07:43:16.431Z,14.61
2018-05-03T07:44:16.700Z,14.61
2018-05-03T07:45:16.958Z,14.61
2018-05-03T07:46:17.220Z,14.17
2018-05-03T07:47:16.486Z,14.30
2018-05-03T07:48:16.751Z,14.61
2018-05-03T07:49:17.028Z,14.80
2018-05-03T07:50:16.302Z,14.98
2018-05-03T07:51:16.319Z,15.11
2018-05-03T07:52:16.591Z,15.23
2018-05-03T07:53:16.848Z,15.17
2018-05-03T07:54:17.113Z,15.30
2018-05-03T07:55:16.382Z,15.30
2018-05-03T07:56:16.647Z,15.11
2018-05-03T07:57:16.908Z,15.23
2018-05-03T07:58:17.182Z,15.30
2018-05-03T07:59:16.443Z,15.48
2018-05-03T08:00:16.717Z,15.42
2018-05-03T08:01:16.740Z,15.30
2018-05-03T08:02:17.000Z,15.17
2018-05-03T08:03:17.259Z,14.67
2018-05-03T08:04:16.531Z,14.86
2018-05-03T08:05:16.793Z,14.92
2018-05-03T08:06:17.064Z,15.05
2018-05-03T08:07:16.335Z,14.98
2018-05-03T08:08:16.605Z,14.98
2018-05-03T08:09:16.872Z,15.05
2018-05-03T08:10:17.140Z,15.23
2018-05-03T08:11:17.197Z,15.42
2018-05-03T08:12:16.458Z,15.55
2018-05-03T08:13:16.731Z,15.48
2018-05-03T08:14:16.996Z,15.73
2018-05-03T08:15:17.261Z,15.86
2018-05-03T08:16:16.515Z,15.92
2018-05-03T08:17:16.781Z,16.11
2018-05-03T08:18:17.049Z,16.11
2018-05-03T08:19:16.319Z,15.80
2018-05-03T08:20:16.599Z,15.86
2018-05-03T08:21:16.745Z,15.67
2018-05-03T08:22:17.034Z,15.48
2018-05-03T08:23:16.321Z,15.48
2018-05-03T08:24:16.571Z,15.73
2018-05-03T08:25:16.828Z,15.98
2018-05-03T08:26:17.080Z,16.36
2018-05-03T08:27:16.346Z,16.05
2018-05-03T08:28:16.613Z,15.86
2018-05-03T08:29:16.873Z,15.67
2018-05-03T08:30:17.147Z,15.92
2018-05-03T08:31:17.178Z,16.11
2018-05-03T08:32:16.443Z,16.23
2018-05-03T08:33:16.703Z,16.48
2018-05-03T08:34:16.973Z,16.48
2018-05-03T08:35:17.247Z,16.86
2018-05-03T08:36:16.513Z,17.17
2018-05-03T08:37:16.769Z,16.61
2018-05-03T08:38:17.027Z,16.17
2018-05-03T08:39:16.288Z,15.67
2018-05-03T08:40:16.566Z,15.61
2018-05-03T08:41:16.587Z,15.92
2018-05-03T08:42:16.850Z,16.36
2018-05-03T08:43:17.115Z,16.61
2018-05-03T08:44:16.370Z,16.73
2018-05-03T08:45:16.632Z,16.73
2018-05-03T08:46:16.886Z,16.80
2018-05-03T08:47:17.159Z,16.80
2018-05-03T08:48:16.426Z,16.92
2018-05-03T08:49:16.701Z,17.17
2018-05-03T08:50:16.988Z,17.23
2018-05-03T08:51:17.034Z,17.30
2018-05-03T08:52:16.300Z,17.30
2018-05-03T08:53:16.568Z,17.48
2018-05-03T08:54:16.823Z,17.67
2018-05-03T08:55:17.082Z,17.55
2018-05-03T08:56:16.357Z,17.61
2018-05-03T08:57:16.627Z,16.67
2018-05-03T08:58:16.887Z,17.23
2018-05-03T08:59:17.175Z,16.67
2018-05-03T09:00:16.444Z,17.30
2018-05-03T09:01:16.543Z,17.61
2018-05-03T09:02:16.907Z,17.61
2018-05-03T09:03:17.170Z,17.61
2018-05-03T09:04:16.434Z,17.98
2018-05-03T09:05:16.691Z,18.17
2018-05-03T09:06:16.956Z,18.11
2018-05-03T09:07:17.221Z,18.11
2018-05-03T09:08:16.491Z,18.30
2018-05-03T09:09:16.761Z,18.05
2018-05-03T09:10:17.034Z,18.11
2018-05-03T09:11:17.077Z,18.30
2018-05-03T09:12:16.337Z,18.36
2018-05-03T09:13:16.599Z,18.48
2018-05-03T09:14:16.862Z,18.36
2018-05-03T09:15:17.121Z,16.92
2018-05-03T09:16:16.397Z,16.61
2018-05-03T09:17:16.662Z,16.67
2018-05-03T09:18:16.925Z,16.80
2018-05-03T09:19:17.199Z,16.80
2018-05-03T09:20:16.470Z,16.80
2018-05-03T09:21:16.513Z,16.61
2018-05-03T09:22:16.778Z,16.80
2018-05-03T09:23:17.045Z,17.36
2018-05-03T09:24:16.312Z,17.11
2018-05-03T09:25:16.579Z,17.36
2018-05-03T09:26:16.857Z,17.67
2018-05-03T09:27:17.150Z,17.30
2018-05-03T09:28:16.401Z,17.48
2018-05-03T09:29:16.660Z,17.42
2018-05-03T09:30:16.947Z,17.86
2018-05-03T09:31:16.975Z,18.36
2018-05-03T09:32:17.238Z,18.48
2018-05-03T09:33:16.503Z,18.42
2018-05-03T09:34:16.761Z,18.42
2018-05-03T09:35:17.029Z,18.05
2018-05-03T09:36:16.283Z,18.11
2018-05-03T09:37:16.544Z,17.98
2018-05-03T09:38:16.802Z,17.73
2018-05-03T09:39:17.088Z,17.61
2018-05-03T09:40:16.442Z,17.80
2018-05-03T09:41:16.496Z,17.36
2018-05-03T09:42:16.753Z,17.67
2018-05-03T09:43:17.016Z,17.98
2018-05-03T09:44:16.289Z,17.86
2018-05-03T09:45:16.549Z,17.92
2018-05-03T09:46:16.806Z,17.61
2018-05-03T09:47:17.070Z,17.36
2018-05-03T09:48:16.335Z,17.30
2018-05-03T09:49:16.593Z,17.55
2018-05-03T09:50:16.865Z,18.05
2018-05-03T09:51:16.888Z,18.30
2018-05-03T09:52:17.155Z,17.86
2018-05-03T09:53:16.426Z,17.42
2018-05-03T09:54:16.689Z,17.48
2018-05-03T09:55:16.944Z,18.05
2018-05-03T09:56:17.212Z,17.98
2018-05-03T09:57:16.478Z,18.42
2018-05-03T09:58:16.745Z,18.80
2018-05-03T09:59:17.030Z,18.86
2018-05-03T10:00:16.380Z,18.73
2018-05-03T10:01:16.432Z,18.61
2018-05-03T10:02:16.695Z,18.67
2018-05-03T10:03:16.956Z,18.61
2018-05-03T10:04:17.467Z,18.55
2018-05-03T10:05:16.732Z,18.42
2018-05-03T10:06:16.993Z,18.42
2018-05-03T10:07:17.260Z,18.23
2018-05-03T10:08:16.534Z,18.30
2018-05-03T10:09:16.797Z,18.30
2018-05-03T10:10:17.060Z,18.61
2018-05-03T10:11:17.105Z,18.80
2018-05-03T10:12:16.361Z,18.48
2018-05-03T10:13:16.624Z,18.05
2018-05-03T10:14:17.055Z,18.48
2018-05-03T10:15:16.312Z,18.86
2018-05-03T10:16:16.582Z,19.17
2018-05-03T10:17:16.847Z,19.67
2018-05-03T10:18:17.114Z,19.61
2018-05-03T10:19:16.379Z,19.67
2018-05-03T10:20:16.660Z,18.67
2018-05-03T10:21:16.688Z,19.17
2018-05-03T10:22:16.954Z,18.86
2018-05-03T10:23:17.224Z,19.05
2018-05-03T10:24:16.501Z,19.48
2018-05-03T10:25:16.766Z,19.36
2018-05-03T10:26:17.033Z,19.61
2018-05-03T10:27:16.365Z,19.80
2018-05-03T10:28:16.623Z,19.48
2018-05-03T10:29:16.876Z,19.23
2018-05-03T10:30:17.205Z,19.23
2018-05-03T10:31:17.181Z,19.42
2018-05-03T10:32:16.439Z,19.61
2018-05-03T10:33:16.701Z,19.23
2018-05-03T10:34:16.971Z,19.67
2018-05-03T10:35:17.233Z,19.55
2018-05-03T10:36:16.574Z,19.36
2018-05-03T10:37:17.004Z,19.30
2018-05-03T10:38:17.267Z,18.86
2018-05-03T10:39:16.537Z,19.11
2018-05-03T10:40:16.808Z,18.92
2018-05-03T10:41:16.826Z,18.92
2018-05-03T10:42:17.103Z,19.29
2018-05-03T10:43:16.557Z,19.23
2018-05-03T10:44:16.812Z,19.05
2018-05-03T10:45:17.065Z,19.36
2018-05-03T10:46:16.323Z,18.98
2018-05-03T10:47:16.591Z,18.98
2018-05-03T10:48:16.850Z,19.05
2018-05-03T10:49:17.116Z,19.04
2018-05-03T10:50:16.376Z,19.17
2018-05-03T10:51:16.426Z,19.23
2018-05-03T10:52:16.685Z,19.48
2018-05-03T10:53:16.949Z,19.70
2018-05-03T10:54:17.229Z,19.48
2018-05-03T10:55:16.510Z,19.30
2018-05-03T10:56:16.781Z,19.92
2018-05-03T10:57:17.044Z,19.80
2018-05-03T10:58:16.308Z,19.48
2018-05-03T10:59:16.573Z,19.73
2018-05-03T11:00:16.838Z,19.92
2018-05-03T11:01:16.887Z,19.86
2018-05-03T11:02:17.152Z,20.11
2018-05-03T11:03:16.412Z,19.86
2018-05-03T11:04:16.684Z,19.36
2018-05-03T11:05:17.076Z,19.61
2018-05-03T11:06:16.586Z,19.73
2018-05-03T11:07:16.861Z,19.48
2018-05-03T11:08:17.129Z,19.61
2018-05-03T11:09:16.391Z,19.55
2018-05-03T11:10:16.655Z,19.42
2018-05-03T11:11:16.693Z,19.42
2018-05-03T11:12:16.952Z,19.42
2018-05-03T11:13:17.218Z,19.92
2018-05-03T11:14:16.487Z,19.84
2018-05-03T11:15:16.752Z,19.98
2018-05-03T11:16:17.003Z,20.30
2018-05-03T11:17:17.266Z,20.25
2018-05-03T11:18:16.524Z,20.34
2018-05-03T11:19:16.793Z,20.48
2018-05-03T11:20:17.056Z,20.30
2018-05-03T11:21:17.098Z,19.73
2018-05-03T11:22:16.371Z,20.05
2018-05-03T11:23:16.632Z,20.36
2018-05-03T11:24:16.890Z,20.14
2018-05-03T11:25:17.164Z,20.48
2018-05-03T11:26:16.417Z,20.11
2018-05-03T11:27:16.700Z,20.36
2018-05-03T11:28:16.957Z,20.23
2018-05-03T11:29:17.223Z,20.17
2018-05-03T11:30:16.506Z,20.36
2018-05-03T11:31:16.525Z,19.86
2018-05-03T11:32:16.785Z,19.73
2018-05-03T11:33:17.051Z,19.98
2018-05-03T11:34:16.310Z,20.05
2018-05-03T11:35:16.574Z,20.11
2018-05-03T11:36:16.826Z,20.11
2018-05-03T11:37:17.119Z,20.48
2018-05-03T11:38:16.395Z,20.55
2018-05-03T11:39:16.657Z,19.98
2018-05-03T11:40:16.927Z,20.11
2018-05-03T11:41:16.958Z,19.86
2018-05-03T11:42:17.233Z,19.98
2018-05-03T11:43:16.490Z,20.11
2018-05-03T11:44:16.756Z,20.17
2018-05-03T11:45:17.017Z,20.05
2018-05-03T11:46:16.278Z,19.92
2018-05-03T11:47:16.537Z,19.98
2018-05-03T11:48:16.805Z,19.67
2018-05-03T11:49:17.062Z,19.61
2018-05-03T11:50:16.331Z,19.36
2018-05-03T11:51:16.369Z,19.67
2018-05-03T11:52:16.631Z,19.92
2018-05-03T11:53:16.966Z,19.98
2018-05-03T11:54:17.240Z,19.42
2018-05-03T11:55:16.510Z,19.36
2018-05-03T11:56:16.768Z,19.55
2018-05-03T11:57:17.024Z,19.30
2018-05-03T11:58:16.283Z,19.48
2018-05-03T11:59:16.587Z,19.80
2018-05-03T12:00:17.158Z,19.42
2018-05-03T12:01:17.211Z,19.48
2018-05-03T12:02:16.472Z,19.30
2018-05-03T12:03:16.738Z,19.11
2018-05-03T12:04:17.001Z,19.17
2018-05-03T12:05:17.268Z,19.11
2018-05-03T12:06:16.536Z,19.48
2018-05-03T12:07:16.792Z,19.61
2018-05-03T12:08:17.048Z,19.86
2018-05-03T12:09:16.311Z,19.80
2018-05-03T12:10:16.573Z,19.73
2018-05-03T12:11:16.610Z,19.80
2018-05-03T12:12:16.867Z,19.98
2018-05-03T12:13:17.211Z,19.86
2018-05-03T12:14:16.466Z,19.67
2018-05-03T12:15:16.713Z,19.86
2018-05-03T12:16:16.975Z,19.80
2018-05-03T12:17:17.242Z,20.05
2018-05-03T12:18:16.501Z,20.17
2018-05-03T12:19:16.756Z,20.36
2018-05-03T12:20:17.014Z,20.23
2018-05-03T12:21:17.065Z,19.98
2018-05-03T12:22:16.407Z,19.05
2018-05-03T12:23:16.673Z,19.17
2018-05-03T12:24:16.971Z,19.48
2018-05-03T12:25:17.259Z,19.55
2018-05-03T12:26:16.514Z,19.98
2018-05-03T12:27:16.770Z,20.11
2018-05-03T12:28:17.031Z,19.73
2018-05-03T12:29:16.291Z,19.73
2018-05-03T12:30:16.581Z,19.86
2018-05-03T12:31:16.621Z,19.80
2018-05-03T12:32:16.875Z,19.42
2018-05-03T12:33:17.139Z,19.42
2018-05-03T12:34:16.396Z,19.80
2018-05-03T12:35:16.660Z,19.98
2018-05-03T12:36:16.923Z,19.98
2018-05-03T12:37:17.183Z,19.67
2018-05-03T12:38:16.443Z,19.67
2018-05-03T12:39:16.703Z,19.55
2018-05-03T12:40:16.983Z,18.67
2018-05-03T12:41:17.035Z,18.80
2018-05-03T12:42:16.312Z,19.11
2018-05-03T12:43:16.574Z,19.42
2018-05-03T12:44:16.831Z,19.61
2018-05-03T12:45:17.084Z,19.61
2018-05-03T12:46:16.354Z,19.73
2018-05-03T12:47:16.625Z,19.92
2018-05-03T12:48:16.886Z,19.61
2018-05-03T12:49:17.468Z,19.42
2018-05-03T12:50:16.752Z,19.36
2018-05-03T12:51:16.791Z,19.61
2018-05-03T12:52:17.050Z,19.48
2018-05-03T12:53:16.317Z,19.55
2018-05-03T12:54:16.583Z,19.42